Weather at Windsor Airport

Public forecast

Using degrees Celsius for public forecast. Weather courtesy of forecast.io.

Current aviation weather report (METAR) for Windsor Airport

Retrieved 2020/09/24 01:00 UTC (16 minutes ago):

CYQG 240100Z AUTO 22005KT 9SM CLR 17/14 A2998 RMK SLP155 DENSITY ALT 900FT

Aviation forecast (TAF) for Windsor Airport

Retrieved 2020-09-24 00:42 UTC (34 minutes ago):

TAF CYQG 232339Z 2400/2424 21007KT P6SM SCT240 BECMG 2402/2404 29005KT FM240900 26005KT P6SM SKC PROB30 2409/2413 1SM BR FM241300 25007KT P6SM FEW030 FM242000 21010KT P6SM FEW040 RMK FCST BASED ON AUTO OBS NXT FCST BY 240600Z